sensor_id;sensor_type;location;lat;lon;timestamp;P1;durP1;ratioP1;P2;durP2;ratioP2
64252;SDS011;50592;52.958;-7.470;2024-01-16T00:03:30;29.25;;;13.10;;
64252;SDS011;50592;52.958;-7.470;2024-01-16T00:05:57;22.98;;;11.95;;
64252;SDS011;50592;52.958;-7.470;2024-01-16T00:08:23;22.05;;;11.57;;
64252;SDS011;50592;52.958;-7.470;2024-01-16T00:23:35;18.25;;;9.20;;
64252;SDS011;50592;52.958;-7.470;2024-01-16T00:26:06;20.00;;;10.15;;
64252;SDS011;50592;52.958;-7.470;2024-01-16T00:28:34;16.92;;;9.98;;
64252;SDS011;50592;52.958;-7.470;2024-01-16T00:45:33;13.95;;;8.05;;
64252;SDS011;50592;52.958;-7.470;2024-01-16T00:47:59;18.20;;;8.55;;
64252;SDS011;50592;52.958;-7.470;2024-01-16T00:50:44;12.65;;;7.78;;
64252;SDS011;50592;52.958;-7.470;2024-01-16T00:53:11;17.80;;;8.75;;
64252;SDS011;50592;52.958;-7.470;2024-01-16T00:55:37;15.52;;;8.15;;
64252;SDS011;50592;52.958;-7.470;2024-01-16T00:58:04;18.77;;;8.48;;
64252;SDS011;50592;52.958;-7.470;2024-01-16T01:00:29;13.70;;;7.82;;
64252;SDS011;50592;52.958;-7.470;2024-01-16T01:10:16;17.83;;;7.28;;
64252;SDS011;50592;52.958;-7.470;2024-01-16T01:20:46;12.73;;;6.82;;
64252;SDS011;50592;52.958;-7.470;2024-01-16T01:23:12;18.90;;;7.20;;
64252;SDS011;50592;52.958;-7.470;2024-01-16T01:25:41;13.82;;;6.10;;
64252;SDS011;50592;52.958;-7.470;2024-01-16T01:36:10;16.20;;;8.00;;
64252;SDS011;50592;52.958;-7.470;2024-01-16T01:38:45;14.07;;;7.05;;
64252;SDS011;50592;52.958;-7.470;2024-01-16T01:41:22;21.00;;;7.70;;
64252;SDS011;50592;52.958;-7.470;2024-01-16T01:53:57;16.15;;;7.15;;
64252;SDS011;50592;52.958;-7.470;2024-01-16T02:01:55;18.35;;;7.13;;
64252;SDS011;50592;52.958;-7.470;2024-01-16T02:04:35;21.63;;;8.10;;
64252;SDS011;50592;52.958;-7.470;2024-01-16T02:07:06;13.43;;;7.20;;
64252;SDS011;50592;52.958;-7.470;2024-01-16T02:34:26;18.30;;;8.85;;
64252;SDS011;50592;52.958;-7.470;2024-01-16T02:51:25;15.82;;;7.95;;
64252;SDS011;50592;52.958;-7.470;2024-01-16T03:08:03;27.25;;;8.85;;
64252;SDS011;50592;52.958;-7.470;2024-01-16T03:14:48;21.25;;;9.00;;
64252;SDS011;50592;52.958;-7.470;2024-01-16T03:17:18;14.25;;;8.23;;
64252;SDS011;50592;52.958;-7.470;2024-01-16T03:20:43;16.63;;;8.52;;
64252;SDS011;50592;52.958;-7.470;2024-01-16T03:23:52;17.05;;;8.13;;
64252;SDS011;50592;52.958;-7.470;2024-01-16T03:33:39;14.77;;;7.55;;
64252;SDS011;50592;52.958;-7.470;2024-01-16T03:37:22;18.70;;;9.23;;
64252;SDS011;50592;52.958;-7.470;2024-01-16T03:39:48;20.95;;;9.25;;
64252;SDS011;50592;52.958;-7.470;2024-01-16T03:42:29;23.00;;;9.45;;
64252;SDS011;50592;52.958;-7.470;2024-01-16T03:44:58;21.38;;;10.02;;
64252;SDS011;50592;52.958;-7.470;2024-01-16T03:47:28;14.38;;;8.35;;
64252;SDS011;50592;52.958;-7.470;2024-01-16T03:49:54;22.90;;;9.23;;
64252;SDS011;50592;52.958;-7.470;2024-01-16T03:52:19;16.98;;;8.38;;
64252;SDS011;50592;52.958;-7.470;2024-01-16T03:54:45;14.07;;;8.18;;
64252;SDS011;50592;52.958;-7.470;2024-01-16T03:57:11;17.92;;;8.65;;
64252;SDS011;50592;52.958;-7.470;2024-01-16T03:59:37;12.63;;;7.95;;
64252;SDS011;50592;52.958;-7.470;2024-01-16T04:02:04;15.63;;;8.38;;
64252;SDS011;50592;52.958;-7.470;2024-01-16T04:04:35;14.65;;;7.88;;
64252;SDS011;50592;52.958;-7.470;2024-01-16T04:08:20;17.48;;;7.95;;
64252;SDS011;50592;52.958;-7.470;2024-01-16T04:10:46;15.43;;;7.55;;
64252;SDS011;50592;52.958;-7.470;2024-01-16T04:13:36;20.67;;;8.05;;
64252;SDS011;50592;52.958;-7.470;2024-01-16T04:16:13;14.60;;;7.43;;
64252;SDS011;50592;52.958;-7.470;2024-01-16T04:18:59;20.88;;;8.32;;
64252;SDS011;50592;52.958;-7.470;2024-01-16T04:21:30;14.10;;;7.28;;
64252;SDS011;50592;52.958;-7.470;2024-01-16T04:24:04;17.08;;;7.88;;
64252;SDS011;50592;52.958;-7.470;2024-01-16T04:26:30;11.38;;;6.97;;
64252;SDS011;50592;52.958;-7.470;2024-01-16T04:28:56;13.77;;;6.82;;
64252;SDS011;50592;52.958;-7.470;2024-01-16T04:31:22;15.13;;;8.55;;
64252;SDS011;50592;52.958;-7.470;2024-01-16T04:33:48;19.77;;;8.45;;
64252;SDS011;50592;52.958;-7.470;2024-01-16T04:36:14;18.65;;;8.25;;
64252;SDS011;50592;52.958;-7.470;2024-01-16T04:38:40;18.15;;;7.75;;
64252;SDS011;50592;52.958;-7.470;2024-01-16T04:41:13;17.38;;;7.90;;
64252;SDS011;50592;52.958;-7.470;2024-01-16T04:43:41;12.80;;;7.15;;
64252;SDS011;50592;52.958;-7.470;2024-01-16T04:46:07;15.50;;;8.10;;
64252;SDS011;50592;52.958;-7.470;2024-01-16T04:48:39;14.95;;;8.57;;
64252;SDS011;50592;52.958;-7.470;2024-01-16T04:51:23;14.77;;;7.90;;
64252;SDS011;50592;52.958;-7.470;2024-01-16T04:53:53;19.20;;;8.00;;
64252;SDS011;50592;52.958;-7.470;2024-01-16T04:56:22;21.20;;;7.70;;
64252;SDS011;50592;52.958;-7.470;2024-01-16T04:58:48;13.90;;;7.38;;
64252;SDS011;50592;52.958;-7.470;2024-01-16T05:01:24;16.17;;;7.85;;
64252;SDS011;50592;52.958;-7.470;2024-01-16T05:03:50;11.77;;;7.25;;
64252;SDS011;50592;52.958;-7.470;2024-01-16T05:06:16;20.17;;;7.20;;
64252;SDS011;50592;52.958;-7.470;2024-01-16T05:08:55;33.38;;;7.68;;
64252;SDS011;50592;52.958;-7.470;2024-01-16T05:11:33;13.35;;;6.70;;
64252;SDS011;50592;52.958;-7.470;2024-01-16T05:14:06;16.70;;;6.22;;
64252;SDS011;50592;52.958;-7.470;2024-01-16T05:16:32;15.88;;;6.70;;
64252;SDS011;50592;52.958;-7.470;2024-01-16T05:18:58;14.80;;;7.05;;
64252;SDS011;50592;52.958;-7.470;2024-01-16T05:21:24;12.80;;;6.55;;
64252;SDS011;50592;52.958;-7.470;2024-01-16T05:23:50;15.65;;;6.53;;
64252;SDS011;50592;52.958;-7.470;2024-01-16T05:26:16;23.63;;;6.80;;
64252;SDS011;50592;52.958;-7.470;2024-01-16T05:28:42;15.35;;;6.47;;
64252;SDS011;50592;52.958;-7.470;2024-01-16T05:31:08;18.00;;;6.78;;
64252;SDS011;50592;52.958;-7.470;2024-01-16T05:33:34;13.15;;;6.15;;
64252;SDS011;50592;52.958;-7.470;2024-01-16T05:36:00;15.65;;;6.35;;
64252;SDS011;50592;52.958;-7.470;2024-01-16T05:38:25;13.18;;;6.22;;
64252;SDS011;50592;52.958;-7.470;2024-01-16T05:40:52;14.35;;;5.72;;
64252;SDS011;50592;52.958;-7.470;2024-01-16T05:43:18;13.57;;;5.63;;
64252;SDS011;50592;52.958;-7.470;2024-01-16T05:45:43;12.77;;;5.63;;
64252;SDS011;50592;52.958;-7.470;2024-01-16T05:48:09;16.95;;;6.28;;
64252;SDS011;50592;52.958;-7.470;2024-01-16T05:50:36;13.63;;;5.63;;
64252;SDS011;50592;52.958;-7.470;2024-01-16T05:53:02;12.90;;;6.05;;
64252;SDS011;50592;52.958;-7.470;2024-01-16T05:55:28;11.93;;;5.65;;
64252;SDS011;50592;52.958;-7.470;2024-01-16T05:57:57;12.20;;;5.55;;
64252;SDS011;50592;52.958;-7.470;2024-01-16T06:00:25;8.90;;;5.65;;
64252;SDS011;50592;52.958;-7.470;2024-01-16T06:02:50;15.00;;;5.65;;
64252;SDS011;50592;52.958;-7.470;2024-01-16T06:05:16;17.65;;;5.90;;
64252;SDS011;50592;52.958;-7.470;2024-01-16T06:07:42;19.38;;;6.22;;
64252;SDS011;50592;52.958;-7.470;2024-01-16T06:10:08;11.57;;;5.18;;
64252;SDS011;50592;52.958;-7.470;2024-01-16T06:12:37;8.68;;;6.15;;
64252;SDS011;50592;52.958;-7.470;2024-01-16T06:15:03;10.88;;;4.57;;
64252;SDS011;50592;52.958;-7.470;2024-01-16T06:17:29;9.45;;;5.35;;
64252;SDS011;50592;52.958;-7.470;2024-01-16T06:19:54;9.10;;;5.07;;
64252;SDS011;50592;52.958;-7.470;2024-01-16T06:22:20;11.18;;;4.30;;
64252;SDS011;50592;52.958;-7.470;2024-01-16T06:24:46;9.13;;;4.70;;
64252;SDS011;50592;52.958;-7.470;2024-01-16T06:27:12;13.93;;;4.97;;
64252;SDS011;50592;52.958;-7.470;2024-01-16T06:29:44;10.40;;;4.43;;
64252;SDS011;50592;52.958;-7.470;2024-01-16T06:32:11;9.82;;;4.15;;
64252;SDS011;50592;52.958;-7.470;2024-01-16T06:34:37;10.90;;;4.70;;
64252;SDS011;50592;52.958;-7.470;2024-01-16T06:37:03;9.15;;;3.95;;
64252;SDS011;50592;52.958;-7.470;2024-01-16T06:39:29;16.35;;;4.30;;
64252;SDS011;50592;52.958;-7.470;2024-01-16T06:41:55;7.63;;;4.15;;
64252;SDS011;50592;52.958;-7.470;2024-01-16T06:44:20;12.18;;;4.38;;
64252;SDS011;50592;52.958;-7.470;2024-01-16T06:46:46;11.77;;;4.25;;
64252;SDS011;50592;52.958;-7.470;2024-01-16T06:49:12;7.40;;;4.15;;
64252;SDS011;50592;52.958;-7.470;2024-01-16T06:51:38;11.15;;;3.85;;
64252;SDS011;50592;52.958;-7.470;2024-01-16T06:54:04;7.15;;;3.60;;
64252;SDS011;50592;52.958;-7.470;2024-01-16T06:56:30;9.15;;;3.83;;
64252;SDS011;50592;52.958;-7.470;2024-01-16T06:58:55;9.27;;;3.55;;
64252;SDS011;50592;52.958;-7.470;2024-01-16T07:01:21;9.05;;;4.30;;
64252;SDS011;50592;52.958;-7.470;2024-01-16T07:03:48;6.68;;;3.47;;
64252;SDS011;50592;52.958;-7.470;2024-01-16T07:06:13;6.65;;;3.38;;
64252;SDS011;50592;52.958;-7.470;2024-01-16T07:08:39;7.07;;;3.72;;
64252;SDS011;50592;52.958;-7.470;2024-01-16T07:11:05;8.20;;;4.30;;
64252;SDS011;50592;52.958;-7.470;2024-01-16T07:13:34;8.48;;;3.70;;
64252;SDS011;50592;52.958;-7.470;2024-01-16T07:16:00;6.53;;;3.95;;
64252;SDS011;50592;52.958;-7.470;2024-01-16T07:18:29;6.88;;;3.17;;
64252;SDS011;50592;52.958;-7.470;2024-01-16T07:20:55;8.55;;;3.05;;
64252;SDS011;50592;52.958;-7.470;2024-01-16T07:23:20;11.30;;;3.72;;
64252;SDS011;50592;52.958;-7.470;2024-01-16T07:25:46;11.23;;;3.47;;
64252;SDS011;50592;52.958;-7.470;2024-01-16T07:28:12;8.35;;;4.32;;
64252;SDS011;50592;52.958;-7.470;2024-01-16T07:30:38;6.25;;;3.35;;
64252;SDS011;50592;52.958;-7.470;2024-01-16T07:33:04;8.73;;;3.33;;
64252;SDS011;50592;52.958;-7.470;2024-01-16T07:35:29;10.73;;;3.53;;
64252;SDS011;50592;52.958;-7.470;2024-01-16T07:37:55;6.60;;;3.53;;
64252;SDS011;50592;52.958;-7.470;2024-01-16T07:40:21;7.22;;;3.38;;
64252;SDS011;50592;52.958;-7.470;2024-01-16T07:42:49;5.10;;;2.85;;
64252;SDS011;50592;52.958;-7.470;2024-01-16T07:45:15;11.52;;;4.13;;
64252;SDS011;50592;52.958;-7.470;2024-01-16T07:47:40;5.47;;;3.60;;
64252;SDS011;50592;52.958;-7.470;2024-01-16T07:50:07;6.20;;;3.42;;
64252;SDS011;50592;52.958;-7.470;2024-01-16T07:52:33;9.05;;;3.75;;
64252;SDS011;50592;52.958;-7.470;2024-01-16T07:54:59;10.45;;;3.95;;
64252;SDS011;50592;52.958;-7.470;2024-01-16T07:57:24;6.43;;;3.03;;
64252;SDS011;50592;52.958;-7.470;2024-01-16T07:59:50;7.75;;;3.28;;
64252;SDS011;50592;52.958;-7.470;2024-01-16T08:02:16;6.88;;;2.65;;
64252;SDS011;50592;52.958;-7.470;2024-01-16T08:04:42;13.98;;;3.13;;
64252;SDS011;50592;52.958;-7.470;2024-01-16T08:07:08;7.70;;;2.78;;
64252;SDS011;50592;52.958;-7.470;2024-01-16T08:09:34;9.55;;;3.25;;
64252;SDS011;50592;52.958;-7.470;2024-01-16T08:12:00;8.13;;;2.72;;
64252;SDS011;50592;52.958;-7.470;2024-01-16T08:14:28;6.85;;;2.72;;
64252;SDS011;50592;52.958;-7.470;2024-01-16T08:16:54;4.93;;;2.38;;
64252;SDS011;50592;52.958;-7.470;2024-01-16T08:19:20;11.20;;;4.22;;
64252;SDS011;50592;52.958;-7.470;2024-01-16T08:21:46;9.90;;;2.67;;
64252;SDS011;50592;52.958;-7.470;2024-01-16T08:24:11;7.43;;;2.70;;
64252;SDS011;50592;52.958;-7.470;2024-01-16T08:26:37;8.13;;;2.97;;
64252;SDS011;50592;52.958;-7.470;2024-01-16T08:29:03;12.98;;;2.92;;
64252;SDS011;50592;52.958;-7.470;2024-01-16T08:31:30;9.95;;;4.70;;
64252;SDS011;50592;52.958;-7.470;2024-01-16T08:33:56;6.97;;;2.97;;
64252;SDS011;50592;52.958;-7.470;2024-01-16T08:36:22;7.05;;;2.78;;
64252;SDS011;50592;52.958;-7.470;2024-01-16T08:38:48;8.25;;;2.83;;
64252;SDS011;50592;52.958;-7.470;2024-01-16T08:41:14;8.52;;;4.53;;
64252;SDS011;50592;52.958;-7.470;2024-01-16T08:43:40;12.15;;;5.00;;
64252;SDS011;50592;52.958;-7.470;2024-01-16T08:46:06;15.57;;;6.68;;
64252;SDS011;50592;52.958;-7.470;2024-01-16T08:48:33;19.63;;;8.93;;
64252;SDS011;50592;52.958;-7.470;2024-01-16T08:51:07;21.95;;;10.95;;
64252;SDS011;50592;52.958;-7.470;2024-01-16T08:53:37;29.23;;;15.50;;
64252;SDS011;50592;52.958;-7.470;2024-01-16T08:56:03;30.45;;;17.13;;
64252;SDS011;50592;52.958;-7.470;2024-01-16T08:58:32;42.17;;;21.67;;
64252;SDS011;50592;52.958;-7.470;2024-01-16T09:01:02;23.35;;;13.23;;
64252;SDS011;50592;52.958;-7.470;2024-01-16T09:03:29;46.72;;;28.63;;
64252;SDS011;50592;52.958;-7.470;2024-01-16T09:05:55;35.55;;;21.52;;
64252;SDS011;50592;52.958;-7.470;2024-01-16T09:08:21;34.55;;;21.50;;
64252;SDS011;50592;52.958;-7.470;2024-01-16T09:10:47;20.35;;;10.88;;
64252;SDS011;50592;52.958;-7.470;2024-01-16T09:13:18;10.15;;;4.13;;
64252;SDS011;50592;52.958;-7.470;2024-01-16T09:15:51;29.15;;;18.13;;
64252;SDS011;50592;52.958;-7.470;2024-01-16T09:18:22;21.40;;;12.93;;
64252;SDS011;50592;52.958;-7.470;2024-01-16T09:20:48;49.45;;;32.83;;
64252;SDS011;50592;52.958;-7.470;2024-01-16T09:23:18;19.95;;;13.35;;
64252;SDS011;50592;52.958;-7.470;2024-01-16T09:25:55;26.45;;;20.55;;
64252;SDS011;50592;52.958;-7.470;2024-01-16T09:28:24;10.27;;;6.35;;
64252;SDS011;50592;52.958;-7.470;2024-01-16T09:31:02;14.85;;;8.88;;
64252;SDS011;50592;52.958;-7.470;2024-01-16T09:33:29;7.88;;;5.32;;
64252;SDS011;50592;52.958;-7.470;2024-01-16T09:35:55;12.07;;;7.07;;
64252;SDS011;50592;52.958;-7.470;2024-01-16T09:38:22;10.43;;;4.45;;
64252;SDS011;50592;52.958;-7.470;2024-01-16T09:40:55;13.30;;;8.35;;
64252;SDS011;50592;52.958;-7.470;2024-01-16T09:43:25;24.27;;;12.52;;
64252;SDS011;50592;52.958;-7.470;2024-01-16T09:45:52;13.32;;;6.75;;
64252;SDS011;50592;52.958;-7.470;2024-01-16T09:48:21;13.70;;;5.60;;
64252;SDS011;50592;52.958;-7.470;2024-01-16T09:53:56;138.27;;;73.22;;
64252;SDS011;50592;52.958;-7.470;2024-01-16T09:56:23;31.98;;;16.85;;
64252;SDS011;50592;52.958;-7.470;2024-01-16T09:58:50;20.20;;;10.52;;
64252;SDS011;50592;52.958;-7.470;2024-01-16T10:01:21;10.73;;;4.78;;
64252;SDS011;50592;52.958;-7.470;2024-01-16T10:03:52;27.70;;;15.25;;
64252;SDS011;50592;52.958;-7.470;2024-01-16T10:06:27;13.80;;;8.18;;
64252;SDS011;50592;52.958;-7.470;2024-01-16T10:08:53;25.20;;;13.25;;
64252;SDS011;50592;52.958;-7.470;2024-01-16T10:14:10;11.60;;;4.32;;
64252;SDS011;50592;52.958;-7.470;2024-01-16T10:19:26;8.75;;;3.03;;
64252;SDS011;50592;52.958;-7.470;2024-01-16T10:21:52;11.57;;;4.68;;
64252;SDS011;50592;52.958;-7.470;2024-01-16T10:24:26;9.55;;;2.50;;
64252;SDS011;50592;52.958;-7.470;2024-01-16T10:26:58;19.35;;;10.10;;
64252;SDS011;50592;52.958;-7.470;2024-01-16T10:29:26;7.95;;;4.00;;
64252;SDS011;50592;52.958;-7.470;2024-01-16T10:31:52;12.10;;;6.47;;
64252;SDS011;50592;52.958;-7.470;2024-01-16T10:34:21;14.98;;;7.30;;
64252;SDS011;50592;52.958;-7.470;2024-01-16T10:36:49;8.93;;;5.03;;
64252;SDS011;50592;52.958;-7.470;2024-01-16T10:39:17;7.90;;;3.75;;
64252;SDS011;50592;52.958;-7.470;2024-01-16T10:41:56;15.38;;;8.80;;
64252;SDS011;50592;52.958;-7.470;2024-01-16T10:44:23;8.90;;;5.55;;
64252;SDS011;50592;52.958;-7.470;2024-01-16T10:46:49;12.90;;;8.80;;
64252;SDS011;50592;52.958;-7.470;2024-01-16T10:49:15;9.93;;;5.95;;
64252;SDS011;50592;52.958;-7.470;2024-01-16T10:51:42;11.98;;;7.68;;
64252;SDS011;50592;52.958;-7.470;2024-01-16T10:54:12;10.32;;;5.75;;
64252;SDS011;50592;52.958;-7.470;2024-01-16T10:56:45;12.27;;;8.55;;
64252;SDS011;50592;52.958;-7.470;2024-01-16T10:59:31;9.88;;;6.03;;
64252;SDS011;50592;52.958;-7.470;2024-01-16T11:02:04;8.38;;;3.90;;
64252;SDS011;50592;52.958;-7.470;2024-01-16T11:04:36;4.93;;;2.35;;
64252;SDS011;50592;52.958;-7.470;2024-01-16T11:07:04;8.65;;;2.40;;
64252;SDS011;50592;52.958;-7.470;2024-01-16T11:09:31;7.88;;;2.58;;
64252;SDS011;50592;52.958;-7.470;2024-01-16T11:11:57;3.90;;;2.08;;
64252;SDS011;50592;52.958;-7.470;2024-01-16T11:14:24;7.30;;;3.63;;
64252;SDS011;50592;52.958;-7.470;2024-01-16T11:16:51;6.60;;;1.80;;
64252;SDS011;50592;52.958;-7.470;2024-01-16T11:19:18;3.97;;;2.90;;
64252;SDS011;50592;52.958;-7.470;2024-01-16T11:21:45;5.97;;;2.50;;
64252;SDS011;50592;52.958;-7.470;2024-01-16T11:24:18;2.85;;;1.23;;
64252;SDS011;50592;52.958;-7.470;2024-01-16T11:26:44;4.15;;;1.30;;
64252;SDS011;50592;52.958;-7.470;2024-01-16T11:31:52;4.53;;;2.00;;
64252;SDS011;50592;52.958;-7.470;2024-01-16T11:37:12;3.15;;;1.10;;
64252;SDS011;50592;52.958;-7.470;2024-01-16T11:39:39;2.33;;;1.20;;
64252;SDS011;50592;52.958;-7.470;2024-01-16T11:42:08;6.30;;;2.88;;
64252;SDS011;50592;52.958;-7.470;2024-01-16T11:44:46;8.45;;;3.00;;
64252;SDS011;50592;52.958;-7.470;2024-01-16T11:49:44;5.97;;;2.58;;
64252;SDS011;50592;52.958;-7.470;2024-01-16T11:52:11;13.77;;;8.35;;
64252;SDS011;50592;52.958;-7.470;2024-01-16T11:54:39;11.10;;;4.80;;
64252;SDS011;50592;52.958;-7.470;2024-01-16T12:00:21;8.32;;;4.20;;
64252;SDS011;50592;52.958;-7.470;2024-01-16T12:05:20;9.02;;;4.85;;
64252;SDS011;50592;52.958;-7.470;2024-01-16T12:07:46;14.10;;;8.75;;
64252;SDS011;50592;52.958;-7.470;2024-01-16T12:10:16;9.02;;;3.55;;
64252;SDS011;50592;52.958;-7.470;2024-01-16T12:12:43;12.02;;;6.68;;
64252;SDS011;50592;52.958;-7.470;2024-01-16T12:15:13;8.25;;;3.15;;
64252;SDS011;50592;52.958;-7.470;2024-01-16T12:17:54;14.00;;;8.30;;
64252;SDS011;50592;52.958;-7.470;2024-01-16T12:20:21;6.50;;;3.00;;
64252;SDS011;50592;52.958;-7.470;2024-01-16T12:23:00;7.30;;;3.25;;
64252;SDS011;50592;52.958;-7.470;2024-01-16T12:25:26;3.53;;;1.23;;
64252;SDS011;50592;52.958;-7.470;2024-01-16T12:30:32;4.82;;;1.85;;
64252;SDS011;50592;52.958;-7.470;2024-01-16T12:33:05;4.35;;;1.63;;
64252;SDS011;50592;52.958;-7.470;2024-01-16T12:38:04;12.38;;;2.58;;
64252;SDS011;50592;52.958;-7.470;2024-01-16T12:40:35;4.03;;;1.55;;
64252;SDS011;50592;52.958;-7.470;2024-01-16T12:43:02;6.95;;;1.50;;
64252;SDS011;50592;52.958;-7.470;2024-01-16T12:45:30;3.05;;;1.90;;
64252;SDS011;50592;52.958;-7.470;2024-01-16T12:47:57;13.48;;;6.90;;
64252;SDS011;50592;52.958;-7.470;2024-01-16T12:50:25;10.52;;;4.40;;
64252;SDS011;50592;52.958;-7.470;2024-01-16T12:53:09;11.50;;;5.63;;
64252;SDS011;50592;52.958;-7.470;2024-01-16T12:55:36;9.85;;;3.33;;
64252;SDS011;50592;52.958;-7.470;2024-01-16T12:58:16;4.85;;;1.90;;
64252;SDS011;50592;52.958;-7.470;2024-01-16T13:00:44;12.23;;;6.13;;
64252;SDS011;50592;52.958;-7.470;2024-01-16T13:03:20;5.47;;;3.28;;
64252;SDS011;50592;52.958;-7.470;2024-01-16T13:05:56;7.72;;;3.90;;
64252;SDS011;50592;52.958;-7.470;2024-01-16T13:08:23;7.05;;;2.05;;
64252;SDS011;50592;52.958;-7.470;2024-01-16T13:11:06;5.43;;;2.42;;
64252;SDS011;50592;52.958;-7.470;2024-01-16T13:13:33;10.80;;;5.38;;
64252;SDS011;50592;52.958;-7.470;2024-01-16T13:16:00;4.57;;;1.83;;
64252;SDS011;50592;52.958;-7.470;2024-01-16T13:18:28;8.50;;;5.50;;
64252;SDS011;50592;52.958;-7.470;2024-01-16T13:20:56;10.35;;;4.70;;
64252;SDS011;50592;52.958;-7.470;2024-01-16T13:23:25;6.65;;;2.38;;
64252;SDS011;50592;52.958;-7.470;2024-01-16T13:25:53;10.98;;;5.90;;
64252;SDS011;50592;52.958;-7.470;2024-01-16T13:28:21;25.80;;;10.95;;
64252;SDS011;50592;52.958;-7.470;2024-01-16T13:30:47;8.27;;;3.55;;
64252;SDS011;50592;52.958;-7.470;2024-01-16T13:33:14;6.85;;;1.55;;
64252;SDS011;50592;52.958;-7.470;2024-01-16T13:35:42;10.60;;;4.70;;
64252;SDS011;50592;52.958;-7.470;2024-01-16T13:38:12;7.85;;;2.60;;
64252;SDS011;50592;52.958;-7.470;2024-01-16T13:40:41;5.13;;;1.98;;
64252;SDS011;50592;52.958;-7.470;2024-01-16T13:43:07;2.38;;;1.23;;
64252;SDS011;50592;52.958;-7.470;2024-01-16T13:45:33;5.00;;;2.05;;
64252;SDS011;50592;52.958;-7.470;2024-01-16T13:48:02;6.05;;;1.08;;
64252;SDS011;50592;52.958;-7.470;2024-01-16T13:54:10;6.25;;;1.80;;
64252;SDS011;50592;52.958;-7.470;2024-01-16T13:56:36;5.43;;;2.40;;
64252;SDS011;50592;52.958;-7.470;2024-01-16T13:59:03;1.77;;;1.20;;
64252;SDS011;50592;52.958;-7.470;2024-01-16T14:01:29;3.58;;;1.42;;
64252;SDS011;50592;52.958;-7.470;2024-01-16T14:03:55;4.03;;;1.52;;
64252;SDS011;50592;52.958;-7.470;2024-01-16T14:06:21;4.25;;;1.15;;
64252;SDS011;50592;52.958;-7.470;2024-01-16T14:08:47;3.90;;;1.55;;
64252;SDS011;50592;52.958;-7.470;2024-01-16T14:11:13;2.08;;;1.05;;
64252;SDS011;50592;52.958;-7.470;2024-01-16T14:13:39;3.30;;;1.25;;
64252;SDS011;50592;52.958;-7.470;2024-01-16T14:16:04;5.50;;;1.40;;
64252;SDS011;50592;52.958;-7.470;2024-01-16T14:18:30;5.80;;;1.45;;
64252;SDS011;50592;52.958;-7.470;2024-01-16T14:20:56;7.38;;;1.67;;
64252;SDS011;50592;52.958;-7.470;2024-01-16T14:23:22;4.28;;;1.38;;
64252;SDS011;50592;52.958;-7.470;2024-01-16T14:25:49;4.75;;;1.42;;
64252;SDS011;50592;52.958;-7.470;2024-01-16T14:28:14;3.10;;;0.93;;
64252;SDS011;50592;52.958;-7.470;2024-01-16T14:30:40;5.07;;;1.00;;
64252;SDS011;50592;52.958;-7.470;2024-01-16T14:33:08;5.03;;;1.25;;
64252;SDS011;50592;52.958;-7.470;2024-01-16T14:35:34;3.20;;;1.00;;
64252;SDS011;50592;52.958;-7.470;2024-01-16T14:38:01;3.10;;;1.10;;
64252;SDS011;50592;52.958;-7.470;2024-01-16T14:40:26;5.80;;;1.13;;
64252;SDS011;50592;52.958;-7.470;2024-01-16T14:42:53;9.50;;;3.20;;
64252;SDS011;50592;52.958;-7.470;2024-01-16T14:45:22;15.68;;;5.38;;
64252;SDS011;50592;52.958;-7.470;2024-01-16T14:47:49;6.28;;;2.47;;
64252;SDS011;50592;52.958;-7.470;2024-01-16T14:50:15;30.45;;;18.08;;
64252;SDS011;50592;52.958;-7.470;2024-01-16T14:52:43;4.57;;;2.60;;
64252;SDS011;50592;52.958;-7.470;2024-01-16T14:55:10;17.15;;;8.75;;
64252;SDS011;50592;52.958;-7.470;2024-01-16T14:57:39;15.23;;;7.53;;
64252;SDS011;50592;52.958;-7.470;2024-01-16T15:00:11;12.73;;;7.13;;
64252;SDS011;50592;52.958;-7.470;2024-01-16T15:02:51;8.43;;;4.97;;
64252;SDS011;50592;52.958;-7.470;2024-01-16T15:05:19;25.52;;;16.30;;
64252;SDS011;50592;52.958;-7.470;2024-01-16T15:07:46;20.13;;;11.55;;
64252;SDS011;50592;52.958;-7.470;2024-01-16T15:10:13;9.05;;;4.07;;
64252;SDS011;50592;52.958;-7.470;2024-01-16T15:12:43;18.90;;;8.75;;
64252;SDS011;50592;52.958;-7.470;2024-01-16T15:15:11;15.70;;;7.85;;
64252;SDS011;50592;52.958;-7.470;2024-01-16T15:17:39;16.25;;;9.43;;
64252;SDS011;50592;52.958;-7.470;2024-01-16T15:20:06;25.45;;;14.25;;
64252;SDS011;50592;52.958;-7.470;2024-01-16T15:22:42;44.65;;;23.25;;
64252;SDS011;50592;52.958;-7.470;2024-01-16T15:25:10;24.98;;;12.60;;
64252;SDS011;50592;52.958;-7.470;2024-01-16T15:27:38;56.50;;;32.83;;
64252;SDS011;50592;52.958;-7.470;2024-01-16T15:30:04;45.97;;;29.08;;
64252;SDS011;50592;52.958;-7.470;2024-01-16T15:32:31;14.35;;;7.88;;
64252;SDS011;50592;52.958;-7.470;2024-01-16T15:34:57;34.75;;;18.75;;
64252;SDS011;50592;52.958;-7.470;2024-01-16T15:37:24;23.27;;;10.52;;
64252;SDS011;50592;52.958;-7.470;2024-01-16T15:39:50;27.13;;;12.98;;
64252;SDS011;50592;52.958;-7.470;2024-01-16T15:42:17;12.70;;;6.05;;
64252;SDS011;50592;52.958;-7.470;2024-01-16T15:44:43;18.35;;;8.18;;
64252;SDS011;50592;52.958;-7.470;2024-01-16T15:47:09;35.33;;;18.30;;
64252;SDS011;50592;52.958;-7.470;2024-01-16T15:49:35;26.63;;;13.40;;
64252;SDS011;50592;52.958;-7.470;2024-01-16T15:52:01;37.38;;;19.30;;
64252;SDS011;50592;52.958;-7.470;2024-01-16T15:54:27;28.48;;;12.95;;
64252;SDS011;50592;52.958;-7.470;2024-01-16T15:56:56;39.03;;;19.90;;
64252;SDS011;50592;52.958;-7.470;2024-01-16T15:59:22;16.50;;;8.55;;
64252;SDS011;50592;52.958;-7.470;2024-01-16T16:01:48;23.85;;;13.52;;
64252;SDS011;50592;52.958;-7.470;2024-01-16T16:04:14;14.48;;;6.82;;
64252;SDS011;50592;52.958;-7.470;2024-01-16T16:06:40;30.38;;;13.75;;
64252;SDS011;50592;52.958;-7.470;2024-01-16T16:09:06;22.67;;;9.77;;
64252;SDS011;50592;52.958;-7.470;2024-01-16T16:11:36;20.58;;;8.75;;
64252;SDS011;50592;52.958;-7.470;2024-01-16T16:14:15;19.20;;;9.30;;
64252;SDS011;50592;52.958;-7.470;2024-01-16T16:16:41;18.85;;;10.82;;
64252;SDS011;50592;52.958;-7.470;2024-01-16T16:19:08;41.03;;;21.77;;
64252;SDS011;50592;52.958;-7.470;2024-01-16T16:21:34;32.88;;;14.45;;
64252;SDS011;50592;52.958;-7.470;2024-01-16T16:24:00;55.08;;;25.55;;
64252;SDS011;50592;52.958;-7.470;2024-01-16T16:26:39;54.78;;;27.30;;
64252;SDS011;50592;52.958;-7.470;2024-01-16T16:29:08;117.97;;;58.67;;
64252;SDS011;50592;52.958;-7.470;2024-01-16T16:31:35;94.43;;;43.00;;
64252;SDS011;50592;52.958;-7.470;2024-01-16T16:34:11;133.70;;;60.63;;
64252;SDS011;50592;52.958;-7.470;2024-01-16T16:36:42;144.43;;;63.83;;
64252;SDS011;50592;52.958;-7.470;2024-01-16T16:39:11;177.07;;;78.90;;
64252;SDS011;50592;52.958;-7.470;2024-01-16T16:41:42;168.85;;;77.25;;
64252;SDS011;50592;52.958;-7.470;2024-01-16T16:44:08;153.18;;;74.22;;
64252;SDS011;50592;52.958;-7.470;2024-01-16T16:46:34;219.30;;;108.45;;
64252;SDS011;50592;52.958;-7.470;2024-01-16T16:49:00;219.85;;;120.93;;
64252;SDS011;50592;52.958;-7.470;2024-01-16T16:51:27;94.90;;;50.53;;
64252;SDS011;50592;52.958;-7.470;2024-01-16T16:53:53;173.27;;;92.55;;
64252;SDS011;50592;52.958;-7.470;2024-01-16T16:56:20;161.93;;;84.45;;
64252;SDS011;50592;52.958;-7.470;2024-01-16T16:58:49;65.72;;;34.60;;
64252;SDS011;50592;52.958;-7.470;2024-01-16T17:01:20;135.57;;;74.72;;
64252;SDS011;50592;52.958;-7.470;2024-01-16T17:03:47;129.43;;;73.25;;
64252;SDS011;50592;52.958;-7.470;2024-01-16T17:06:17;87.97;;;52.90;;
64252;SDS011;50592;52.958;-7.470;2024-01-16T17:08:44;120.03;;;70.07;;
64252;SDS011;50592;52.958;-7.470;2024-01-16T17:14:06;14.20;;;8.23;;
64252;SDS011;50592;52.958;-7.470;2024-01-16T17:16:31;10.07;;;3.85;;
64252;SDS011;50592;52.958;-7.470;2024-01-16T17:19:15;12.27;;;6.93;;
64252;SDS011;50592;52.958;-7.470;2024-01-16T17:21:47;11.60;;;5.93;;